リヤド の空港の天気 - METARとTAF

キング・ハーリド国際空港(リヤド) ( OERK / RUH ) - サウジアラビア リヤド
飛行場実況気象(Metar)
観測時間03/26 10:00 +03 (03/26 07:00 UTC)
風向・風速東北東 4m/s
視程10km以上
天気現象
全天の8割程度の雲 雲底高度 1220m
全天の4割程度の雲 雲底高度 2440m
気温21℃
湿度49%
気圧1018hPa
METAROERK 260700Z 07007KT 9999 BKN040 SCT080 21/10 Q1018 NOSIG
過去の天気等 Google飛行場航空写真 Wunderground天気予報

過去48時間のMETAR

飛行場予報(TAF)
発表時間: 3/26 08:00 +03 (3/26 05:00 UTC)
予報対象時間: 26日9時 +03 ~ 27日15時 +03
風向・風速北東 3m/s 瞬間風速 8m/s
視程7,000m
全天の4割程度の雲 雲底高度 1,370m
26日9時 +03 ~ 26日15時 +03 に一時的に
視程3,000m
TAF OERK 260500Z 2606/2712 04006G16KT 7000 SCT045
TEMPO 2606/2612 3000 DU/BLDU